»·PEaware :: N805SP KEMT-KCMA

N805SP :: KEMT-KCMA

FLIGHT INFORMATION

Flight Status: Arrived
Operator: Privately registered:
United States
More flights under this callsign
Pilot: Zoard B. (3283)
Aircraft: CESSNA 172 SKYHAWK
(C172)
More flights by this aircraft type
Origin: KEMT El Monte
United States
Destination: KCMA Camarillo
United States
More flights between these airports :: More routes between these airports
Route: VNY
File this flight plan on PilotEdge
Remarks:
Altitude:
(Current/Filed)
4,500ft
Speed:
(Current/Filed)
120kts
Departed: 25-Mar-20 01:51 PM
Arrived: 25-Mar-20 02:30 PM
Distance/Time
Traveled:
53nm/0:39
Distance/Time
To Go:
Arrived

Flight Plot

Page will automatically refresh every two minutes.


Map Options




Map Legend


Flown Route
Filed Route
Departure Airport
Arrival Airport
Navaid (VOR, NDB)
Fix

Horizontal Profiles

Position Reports

Time Latitude Longitude Heading Altitude Ground
Speed
25-Mar-20 13:23 34.086053 -118.033305 24 289ft 0kts
25-Mar-20 13:24 34.086053 -118.033305 24 289ft 0kts
25-Mar-20 13:25 34.086053 -118.033305 24 289ft 0kts
25-Mar-20 13:26 34.086052 -118.033305 24 289ft 0kts
25-Mar-20 13:27 34.086052 -118.033305 24 289ft 0kts
25-Mar-20 13:28 34.086052 -118.033305 24 289ft 0kts
25-Mar-20 13:29 34.086052 -118.033305 24 289ft 0kts
25-Mar-20 13:30 34.086052 -118.033305 24 289ft 0kts
25-Mar-20 13:31 34.086052 -118.033305 24 289ft 0kts
25-Mar-20 13:32 34.086052 -118.033305 24 289ft 0kts
25-Mar-20 13:33 34.086052 -118.033305 24 289ft 0kts
25-Mar-20 13:34 34.086052 -118.033305 24 289ft 0kts
25-Mar-20 13:34 34.086052 -118.033305 24 289ft 0kts
25-Mar-20 13:36 34.086052 -118.033305 24 289ft 0kts
25-Mar-20 13:37 34.086052 -118.033305 24 289ft 0kts
25-Mar-20 13:37 34.086052 -118.033305 24 289ft 0kts
25-Mar-20 13:38 34.086052 -118.033305 24 289ft 0kts
25-Mar-20 13:40 34.086052 -118.033305 24 289ft 0kts
25-Mar-20 13:40 34.086052 -118.033305 24 289ft 0kts
25-Mar-20 13:41 34.086052 -118.033305 24 289ft 0kts
25-Mar-20 13:42 34.086052 -118.033305 24 289ft 0kts
25-Mar-20 13:43 34.086052 -118.033305 24 289ft 0kts
25-Mar-20 13:44 34.086052 -118.033305 24 289ft 0kts
25-Mar-20 13:45 34.086052 -118.033305 24 289ft 0kts
25-Mar-20 13:46 34.088404 -118.032839 25 291ft 23kts
25-Mar-20 13:47 34.090692 -118.031588 327 296ft 0kts
25-Mar-20 13:48 34.090692 -118.031588 327 296ft 0kts
25-Mar-20 13:49 34.090739 -118.032131 200 294ft 10kts
25-Mar-20 13:50 34.074496 -118.042752 248 921ft 71kts
25-Mar-20 13:51 34.081738 -118.068404 294 1652ft 88kts
25-Mar-20 13:52 34.100101 -118.087489 307 2408ft 87kts
25-Mar-20 13:53 34.109745 -118.112492 278 2915ft 88kts
25-Mar-20 13:54 34.117857 -118.140727 280 3404ft 89kts
25-Mar-20 13:55 34.126253 -118.168752 280 3893ft 88kts
25-Mar-20 13:56 34.134548 -118.196334 279 4379ft 86kts
25-Mar-20 13:57 34.143552 -118.225735 281 4508ft 99kts
25-Mar-20 13:58 34.152995 -118.256741 281 4333ft 108kts
25-Mar-20 13:59 34.162979 -118.289673 281 3313ft 103kts
25-Mar-20 14:00 34.170961 -118.316882 279 3169ft 86kts
25-Mar-20 14:01 34.179339 -118.344784 280 2995ft 85kts
25-Mar-20 14:02 34.187025 -118.370707 279 2999ft 79kts
25-Mar-20 14:03 34.194425 -118.395537 280 2999ft 79kts
25-Mar-20 14:04 34.201891 -118.420502 280 2999ft 78kts
25-Mar-20 14:05 34.209334 -118.445400 280 2999ft 78kts
25-Mar-20 14:06 34.216926 -118.470813 282 2972ft 79kts
25-Mar-20 14:07 34.222487 -118.495966 266 2972ft 75kts
25-Mar-20 14:08 34.222636 -118.521414 264 2972ft 75kts
25-Mar-20 14:09 34.222354 -118.546719 264 2972ft 75kts
25-Mar-20 14:10 34.222013 -118.572159 264 2971ft 75kts
25-Mar-20 14:11 34.221654 -118.597435 264 2971ft 75kts
25-Mar-20 14:12 34.221292 -118.622738 264 2971ft 75kts
25-Mar-20 14:13 34.220751 -118.649538 264 3402ft 84kts
25-Mar-20 14:14 34.220416 -118.676679 261 4076ft 68kts
25-Mar-20 14:15 34.219184 -118.693974 258 4705ft 70kts
25-Mar-20 14:16 34.219822 -118.724637 265 4502ft 90kts
25-Mar-20 14:17 34.219530 -118.755233 264 4530ft 93kts
25-Mar-20 14:18 34.219061 -118.786771 264 4539ft 94kts
25-Mar-20 14:19 34.218553 -118.818510 264 4539ft 94kts
25-Mar-20 14:20 34.218029 -118.850197 264 4539ft 94kts
25-Mar-20 14:21 34.217507 -118.881851 264 4538ft 94kts
25-Mar-20 14:22 34.218063 -118.908035 268 3901ft 74kts
25-Mar-20 14:23 34.217421 -118.941108 266 2744ft 106kts
25-Mar-20 14:24 34.215122 -118.976457 261 1698ft 107kts
25-Mar-20 14:25 34.213650 -119.012937 265 1503ft 112kts
25-Mar-20 14:26 34.213720 -119.039755 265 897ft 70kts
25-Mar-20 14:27 34.213510 -119.063353 266 496ft 67kts
25-Mar-20 14:28 34.213703 -119.084887 267 92ft 48kts
25-Mar-20 14:29 34.212705 -119.090921 200 69ft 0kts
25-Mar-20 14:30 34.212468 -119.090955 171 69ft 12kts
25-Mar-20 14:31 34.210545 -119.088909 92 69ft 0kts
25-Mar-20 14:32 34.210545 -119.088908 92 69ft 0kts
25-Mar-20 14:33 34.210545 -119.088908 92 69ft 0kts
25-Mar-20 14:34 34.210550 -119.089023 88 69ft 1kts

Navigation Log

Ident Type
Flight plan parsing failed, navigation log unavailable